Thiensville, Wisconsin
Current Conditions -  °F | °C
As of 10:45 AM on Friday 24 Oct 2014 (Local Time) from KMWC Reporting Station
Overcast Overcast  
Wind Chill: 50°   Ceiling: 400
Heat Index: 50°   Visibility: 7mi
Dew Point: 46°   Wind: 3mph
Humidity: 87%   Direction: 260°W
Pressure: 30.05"   Gusts: NA
Location:  43.24°N, 87.98°W
Report Text: KMWC 241545Z AUTO 26003KT 7SM OVC004 10/08 A3005
Loading
Personal Weather Stations






























Interactive Weather Map
Tropical Storm Tracking
New forecast layout! Learn more

10-Day Weather Forecast

Advertisements
Track Severe Weather on mobile